createdAt,value
2022-08-16T00:00:41.151Z,17.48
2022-08-16T00:05:35.296Z,17.70
2022-08-16T00:10:43.655Z,18.02
2022-08-16T00:15:50.963Z,18.18
2022-08-16T00:20:48.618Z,18.35
2022-08-16T00:26:33.720Z,18.44
2022-08-16T00:31:00.986Z,17.93
2022-08-16T00:35:54.444Z,17.90
2022-08-16T00:40:54.826Z,18.02
2022-08-16T00:46:00.626Z,17.96
2022-08-16T00:50:55.547Z,18.02
2022-08-16T00:55:54.535Z,17.70
2022-08-16T01:00:53.986Z,17.58
2022-08-16T01:05:48.913Z,17.42
2022-08-16T01:10:43.712Z,17.42
2022-08-16T01:15:45.228Z,17.64
2022-08-16T01:20:52.509Z,17.42
2022-08-16T01:25:59.949Z,17.57
2022-08-16T01:31:08.330Z,17.11
2022-08-16T01:36:09.360Z,17.37
2022-08-16T01:41:12.039Z,17.55
2022-08-16T01:46:37.933Z,17.54
2022-08-16T01:51:33.898Z,17.47
2022-08-16T01:56:36.707Z,17.44
2022-08-16T02:01:31.939Z,17.46
2022-08-16T02:06:34.422Z,17.60
2022-08-16T02:11:48.595Z,17.67
2022-08-16T02:16:46.071Z,17.47
2022-08-16T02:21:39.655Z,17.67
2022-08-16T02:26:53.603Z,17.18
2022-08-16T02:32:03.266Z,17.36
2022-08-16T02:36:57.944Z,17.19
2022-08-16T02:41:54.235Z,17.19
2022-08-16T02:46:50.678Z,17.24
2022-08-16T02:51:47.235Z,17.25
2022-08-16T02:56:40.724Z,16.66
2022-08-16T03:01:37.333Z,16.53
2022-08-16T03:06:42.139Z,16.64
2022-08-16T03:11:36.336Z,16.77
2022-08-16T03:16:37.718Z,16.99
2022-08-16T03:21:38.299Z,17.11
2022-08-16T03:26:32.045Z,17.16
2022-08-16T03:31:25.422Z,17.08
2022-08-16T03:36:31.112Z,16.82
2022-08-16T03:41:29.438Z,16.64
2022-08-16T03:46:44.857Z,16.81
2022-08-16T03:51:43.933Z,16.98
2022-08-16T03:56:38.615Z,16.59
2022-08-16T04:01:53.674Z,16.75
2022-08-16T04:06:47.222Z,16.49
2022-08-16T04:11:41.921Z,16.35
2022-08-16T04:16:35.722Z,16.43
2022-08-16T04:21:29.819Z,16.55
2022-08-16T04:26:23.088Z,16.58
2022-08-16T04:31:18.490Z,16.58
2022-08-16T04:36:13.075Z,16.78
2022-08-16T04:41:13.613Z,16.79
2022-08-16T04:46:19.747Z,16.88
2022-08-16T04:51:22.904Z,16.76
2022-08-16T04:56:17.325Z,16.64
2022-08-16T05:01:10.722Z,16.77
2022-08-16T05:06:05.178Z,16.83
2022-08-16T05:11:06.279Z,16.46
2022-08-16T05:16:02.064Z,16.79
2022-08-16T05:21:01.742Z,17.10
2022-08-16T05:26:06.426Z,17.25
2022-08-16T05:31:13.231Z,17.39
2022-08-16T05:36:14.237Z,17.57
2022-08-16T05:41:10.102Z,17.77
2022-08-16T05:46:28.701Z,17.89
2022-08-16T05:51:35.264Z,18.22
2022-08-16T05:56:37.567Z,18.29
2022-08-16T06:01:32.849Z,18.52
2022-08-16T06:06:31.892Z,18.44
2022-08-16T06:11:26.954Z,18.41
2022-08-16T06:16:27.043Z,18.51
2022-08-16T06:21:22.803Z,18.39
2022-08-16T06:26:17.383Z,18.65
2022-08-16T06:31:14.576Z,18.93
2022-08-16T06:36:09.796Z,18.97
2022-08-16T06:41:06.755Z,18.89
2022-08-16T06:46:10.712Z,18.88
2022-08-16T06:51:06.488Z,18.89
2022-08-16T06:56:06.017Z,18.81
2022-08-16T07:00:59.853Z,18.86
2022-08-16T07:05:54.315Z,19.16
2022-08-16T07:10:48.017Z,19.45
2022-08-16T07:15:50.234Z,19.69
2022-08-16T07:20:47.846Z,19.60
2022-08-16T07:25:41.504Z,19.76
2022-08-16T07:30:44.967Z,20.03
2022-08-16T07:35:44.428Z,20.13
2022-08-16T07:40:59.413Z,20.33
2022-08-16T07:45:53.459Z,20.74
2022-08-16T07:50:55.809Z,20.89
2022-08-16T07:55:53.824Z,20.96
2022-08-16T08:00:47.811Z,21.04
2022-08-16T08:05:41.472Z,21.32
2022-08-16T08:10:38.217Z,21.82
2022-08-16T08:15:34.371Z,21.96
2022-08-16T08:20:28.585Z,21.99
2022-08-16T08:25:22.435Z,22.32
2022-08-16T08:30:51.339Z,22.31
2022-08-16T08:35:32.298Z,22.64
2022-08-16T08:40:29.364Z,22.87
2022-08-16T08:45:48.103Z,23.09
2022-08-16T08:50:38.595Z,23.10
2022-08-16T08:55:31.891Z,23.28
2022-08-16T09:00:30.240Z,23.39
2022-08-16T09:05:35.782Z,23.51
2022-08-16T09:10:31.318Z,23.72
2022-08-16T09:15:26.391Z,23.82
2022-08-16T09:20:30.539Z,23.71
2022-08-16T09:25:26.278Z,23.90
2022-08-16T09:30:34.105Z,24.09
2022-08-16T09:35:30.704Z,24.22
2022-08-16T09:40:33.312Z,24.27
2022-08-16T09:45:40.308Z,24.52
2022-08-16T09:50:38.475Z,24.71
2022-08-16T09:55:33.349Z,24.73
2022-08-16T10:00:44.425Z,24.89
2022-08-16T10:05:38.587Z,24.94
2022-08-16T10:10:32.659Z,25.02
2022-08-16T10:15:30.268Z,25.22
2022-08-16T10:20:25.688Z,25.30
2022-08-16T10:27:16.243Z,25.50
2022-08-16T10:30:36.851Z,25.50
2022-08-16T10:35:34.799Z,25.76
2022-08-16T10:40:41.330Z,25.81
2022-08-16T10:45:39.144Z,25.80
2022-08-16T10:50:37.940Z,25.90
2022-08-16T10:55:40.863Z,25.81
2022-08-16T11:00:40.835Z,25.65
2022-08-16T11:05:59.477Z,25.64
2022-08-16T11:11:06.409Z,25.83
2022-08-16T11:16:25.483Z,26.07
2022-08-16T11:21:29.220Z,26.33
2022-08-16T11:26:24.466Z,26.35
2022-08-16T11:31:18.445Z,26.19
2022-08-16T11:36:27.772Z,26.19
2022-08-16T11:41:23.325Z,26.23
2022-08-16T11:46:42.788Z,26.37
2022-08-16T11:51:31.603Z,26.37
2022-08-16T11:56:39.520Z,26.35
2022-08-16T12:01:44.357Z,26.31
2022-08-16T12:06:49.996Z,26.38
2022-08-16T12:11:52.426Z,26.38
2022-08-16T12:16:48.638Z,26.47
2022-08-16T12:21:58.432Z,26.65
2022-08-16T12:26:55.115Z,26.66
2022-08-16T12:32:01.151Z,26.67
2022-08-16T12:37:10.354Z,26.61
2022-08-16T12:42:09.543Z,26.53
2022-08-16T12:47:20.799Z,26.47
2022-08-16T12:52:32.609Z,26.62
2022-08-16T12:57:36.395Z,26.73
2022-08-16T13:02:33.711Z,26.62
2022-08-16T13:07:37.543Z,26.78
2022-08-16T13:12:39.654Z,26.66
2022-08-16T13:17:36.435Z,26.58
2022-08-16T13:28:01.589Z,26.59
2022-08-16T13:32:46.873Z,26.46
2022-08-16T13:37:44.817Z,26.45
2022-08-16T13:42:41.368Z,26.62
2022-08-16T13:47:36.615Z,26.60
2022-08-16T13:52:34.193Z,26.53
2022-08-16T13:57:53.582Z,26.59
2022-08-16T14:02:48.846Z,26.66
2022-08-16T14:07:43.767Z,26.60
2022-08-16T14:12:43.972Z,26.70
2022-08-16T14:18:15.548Z,26.61
2022-08-16T14:22:54.680Z,26.80
2022-08-16T14:27:48.615Z,26.70
2022-08-16T14:32:51.128Z,26.85
2022-08-16T14:37:45.463Z,26.87
2022-08-16T14:42:48.313Z,26.94
2022-08-16T14:47:42.153Z,26.90
2022-08-16T14:52:55.233Z,26.83
2022-08-16T14:57:54.235Z,26.89
2022-08-16T15:02:54.154Z,26.87
2022-08-16T15:07:47.734Z,26.79
2022-08-16T15:12:45.420Z,26.86
2022-08-16T15:17:41.370Z,26.90
2022-08-16T15:22:38.999Z,26.93
2022-08-16T15:27:36.784Z,26.82
2022-08-16T15:32:30.807Z,26.85
2022-08-16T15:37:26.038Z,26.85
2022-08-16T15:42:36.151Z,26.96
2022-08-16T15:47:30.427Z,26.83
2022-08-16T15:52:30.609Z,26.81
2022-08-16T15:57:25.368Z,26.85
2022-08-16T16:02:27.288Z,26.80
2022-08-16T16:07:21.470Z,26.83
2022-08-16T16:12:50.104Z,26.91
2022-08-16T16:17:30.441Z,26.95
2022-08-16T16:22:25.403Z,26.85
2022-08-16T16:27:22.719Z,26.97
2022-08-16T16:32:16.484Z,27.04
2022-08-16T16:37:11.489Z,27.06
2022-08-16T16:42:06.239Z,27.02
2022-08-16T16:47:06.933Z,26.95
2022-08-16T16:52:07.344Z,26.95
2022-08-16T16:57:01.073Z,26.84
2022-08-16T17:01:59.632Z,26.75
2022-08-16T17:07:10.957Z,26.68
2022-08-16T17:12:05.989Z,26.68
2022-08-16T17:16:59.422Z,26.76
2022-08-16T17:21:52.991Z,26.71
2022-08-16T17:26:49.317Z,26.60
2022-08-16T17:31:49.724Z,26.51
2022-08-16T17:36:52.765Z,26.53
2022-08-16T17:41:49.301Z,26.49
2022-08-16T17:46:51.113Z,26.52
2022-08-16T17:51:45.995Z,26.39
2022-08-16T17:56:39.477Z,26.44
2022-08-16T18:01:37.053Z,26.22
2022-08-16T18:06:30.867Z,26.22
2022-08-16T18:11:26.226Z,26.10
2022-08-16T18:16:20.652Z,26.00
2022-08-16T18:21:34.092Z,25.86
2022-08-16T18:26:27.745Z,25.56
2022-08-16T18:31:21.141Z,25.34
2022-08-16T18:36:20.230Z,25.00
2022-08-16T18:41:14.629Z,24.68
2022-08-16T18:46:08.086Z,24.51
2022-08-16T18:51:05.819Z,24.28
2022-08-16T18:56:04.282Z,24.02
2022-08-16T19:00:58.643Z,24.01
2022-08-16T19:05:58.493Z,24.15
2022-08-16T19:10:52.789Z,24.00
2022-08-16T19:15:50.399Z,24.01
2022-08-16T19:20:45.702Z,24.11
2022-08-16T19:25:49.127Z,23.99
2022-08-16T19:30:48.765Z,23.97
2022-08-16T19:35:42.593Z,23.95
2022-08-16T19:40:37.950Z,23.76
2022-08-16T19:45:31.976Z,23.69
2022-08-16T19:50:35.883Z,23.81
2022-08-16T19:55:33.425Z,23.82
2022-08-16T20:00:35.555Z,23.92
2022-08-16T20:05:35.236Z,23.71
2022-08-16T20:10:29.720Z,23.61
2022-08-16T20:15:27.651Z,23.11
2022-08-16T20:20:27.329Z,22.86
2022-08-16T20:25:28.013Z,22.97
2022-08-16T20:30:23.016Z,23.09
2022-08-16T20:35:21.657Z,22.85
2022-08-16T20:40:34.513Z,22.66
2022-08-16T20:45:30.211Z,22.79
2022-08-16T20:50:25.510Z,22.42
2022-08-16T20:55:19.959Z,22.34
2022-08-16T21:00:16.751Z,22.48
2022-08-16T21:05:12.191Z,22.49
2022-08-16T21:10:07.543Z,22.14
2022-08-16T21:15:08.978Z,22.10
2022-08-16T21:20:04.101Z,22.06
2022-08-16T21:25:01.780Z,22.02
2022-08-16T21:29:55.854Z,21.69
2022-08-16T21:34:49.378Z,21.64
2022-08-16T21:39:44.258Z,21.67
2022-08-16T21:44:38.574Z,22.04
2022-08-16T21:49:32.577Z,21.98
2022-08-16T21:54:26.036Z,22.02
2022-08-16T21:59:20.738Z,21.94
2022-08-16T22:04:37.113Z,21.93
2022-08-16T22:09:29.557Z,21.75
2022-08-16T22:14:24.407Z,21.74
2022-08-16T22:19:18.324Z,21.69
2022-08-16T22:24:11.684Z,21.44
2022-08-16T22:29:10.255Z,21.68
2022-08-16T22:34:06.131Z,21.39
2022-08-16T22:39:03.538Z,21.32
2022-08-16T22:43:57.660Z,21.31
2022-08-16T22:48:51.376Z,21.47
2022-08-16T22:53:46.039Z,21.35
2022-08-16T22:58:39.762Z,21.21
2022-08-16T23:03:33.191Z,20.84
2022-08-16T23:08:32.379Z,20.56
2022-08-16T23:13:35.077Z,20.98
2022-08-16T23:18:29.678Z,20.98
2022-08-16T23:23:25.640Z,20.68
2022-08-16T23:28:21.280Z,20.71
2022-08-16T23:33:17.278Z,20.71
2022-08-16T23:38:37.629Z,20.72
2022-08-16T23:43:28.235Z,20.47
2022-08-16T23:48:28.198Z,20.56
2022-08-16T23:53:25.876Z,20.47
2022-08-16T23:58:23.179Z,20.12
